sensor_id;sensor_type;location;lat;lon;timestamp;temperature;humidity
7822;DHT22;3956;50.558;9.678;2023-04-25T00:02:02;7.90;1.00
7822;DHT22;3956;50.558;9.678;2023-04-25T00:04:34;7.80;99.90
7822;DHT22;3956;50.558;9.678;2023-04-25T00:07:06;7.70;1.00
7822;DHT22;3956;50.558;9.678;2023-04-25T00:09:39;7.70;99.90
7822;DHT22;3956;50.558;9.678;2023-04-25T00:12:08;7.70;1.00
7822;DHT22;3956;50.558;9.678;2023-04-25T00:14:37;7.70;99.90
7822;DHT22;3956;50.558;9.678;2023-04-25T00:17:05;7.80;99.90
7822;DHT22;3956;50.558;9.678;2023-04-25T00:19:34;7.70;1.00
7822;DHT22;3956;50.558;9.678;2023-04-25T00:22:02;7.80;99.90
7822;DHT22;3956;50.558;9.678;2023-04-25T00:24:32;7.70;1.00
7822;DHT22;3956;50.558;9.678;2023-04-25T00:27:01;7.80;1.00
7822;DHT22;3956;50.558;9.678;2023-04-25T00:29:29;7.80;99.90
7822;DHT22;3956;50.558;9.678;2023-04-25T00:31:59;7.90;45.80
7822;DHT22;3956;50.558;9.678;2023-04-25T00:34:27;7.80;1.00
7822;DHT22;3956;50.558;9.678;2023-04-25T00:36:59;7.70;1.00
7822;DHT22;3956;50.558;9.678;2023-04-25T00:39:30;7.80;1.00
7822;DHT22;3956;50.558;9.678;2023-04-25T00:42:00;7.80;1.00
7822;DHT22;3956;50.558;9.678;2023-04-25T00:44:29;7.70;1.00
7822;DHT22;3956;50.558;9.678;2023-04-25T00:46:59;7.60;99.90
7822;DHT22;3956;50.558;9.678;2023-04-25T00:49:28;7.70;1.00
7822;DHT22;3956;50.558;9.678;2023-04-25T00:51:56;7.70;1.00
7822;DHT22;3956;50.558;9.678;2023-04-25T00:54:25;7.80;1.00
7822;DHT22;3956;50.558;9.678;2023-04-25T00:56:53;7.70;99.90
7822;DHT22;3956;50.558;9.678;2023-04-25T00:59:23;7.70;99.90
7822;DHT22;3956;50.558;9.678;2023-04-25T01:01:54;7.80;99.90
7822;DHT22;3956;50.558;9.678;2023-04-25T01:04:22;7.70;99.90
7822;DHT22;3956;50.558;9.678;2023-04-25T01:06:51;7.60;1.00
7822;DHT22;3956;50.558;9.678;2023-04-25T01:09:20;7.70;1.00
7822;DHT22;3956;50.558;9.678;2023-04-25T01:11:49;7.60;1.00
7822;DHT22;3956;50.558;9.678;2023-04-25T01:14:17;7.60;1.00
7822;DHT22;3956;50.558;9.678;2023-04-25T01:16:47;7.40;99.90
7822;DHT22;3956;50.558;9.678;2023-04-25T01:19:17;7.50;99.90
7822;DHT22;3956;50.558;9.678;2023-04-25T01:21:47;7.50;99.80
7822;DHT22;3956;50.558;9.678;2023-04-25T01:24:15;7.60;99.90
7822;DHT22;3956;50.558;9.678;2023-04-25T01:26:44;7.60;99.90
7822;DHT22;3956;50.558;9.678;2023-04-25T01:29:16;7.60;99.90
7822;DHT22;3956;50.558;9.678;2023-04-25T01:31:45;7.60;94.10
7822;DHT22;3956;50.558;9.678;2023-04-25T01:34:13;7.50;99.90
7822;DHT22;3956;50.558;9.678;2023-04-25T01:36:42;7.60;99.90
7822;DHT22;3956;50.558;9.678;2023-04-25T01:39:11;7.60;79.30
7822;DHT22;3956;50.558;9.678;2023-04-25T01:41:39;7.50;63.50
7822;DHT22;3956;50.558;9.678;2023-04-25T01:44:08;7.40;38.30
7822;DHT22;3956;50.558;9.678;2023-04-25T01:46:36;7.50;57.30
7822;DHT22;3956;50.558;9.678;2023-04-25T01:49:04;7.50;95.50
7822;DHT22;3956;50.558;9.678;2023-04-25T01:51:33;7.60;85.90
7822;DHT22;3956;50.558;9.678;2023-04-25T01:54:01;7.50;66.00
7822;DHT22;3956;50.558;9.678;2023-04-25T01:56:31;7.50;94.40
7822;DHT22;3956;50.558;9.678;2023-04-25T01:59:00;7.60;99.90
7822;DHT22;3956;50.558;9.678;2023-04-25T02:01:28;7.50;98.50
7822;DHT22;3956;50.558;9.678;2023-04-25T02:03:57;7.60;99.90
7822;DHT22;3956;50.558;9.678;2023-04-25T02:06:26;7.60;99.90
7822;DHT22;3956;50.558;9.678;2023-04-25T02:08:54;7.70;85.00
7822;DHT22;3956;50.558;9.678;2023-04-25T02:11:22;7.60;83.70
7822;DHT22;3956;50.558;9.678;2023-04-25T02:13:52;7.50;96.40
7822;DHT22;3956;50.558;9.678;2023-04-25T02:16:22;7.40;99.90
7822;DHT22;3956;50.558;9.678;2023-04-25T02:18:50;7.40;99.90
7822;DHT22;3956;50.558;9.678;2023-04-25T02:21:19;7.50;99.90
7822;DHT22;3956;50.558;9.678;2023-04-25T02:23:47;7.60;99.90
7822;DHT22;3956;50.558;9.678;2023-04-25T02:26:16;7.60;99.90
7822;DHT22;3956;50.558;9.678;2023-04-25T02:28:44;7.60;99.90
7822;DHT22;3956;50.558;9.678;2023-04-25T02:31:14;7.60;99.90
7822;DHT22;3956;50.558;9.678;2023-04-25T02:33:42;7.60;99.90
7822;DHT22;3956;50.558;9.678;2023-04-25T02:36:10;7.50;99.90
7822;DHT22;3956;50.558;9.678;2023-04-25T02:38:39;7.50;99.90
7822;DHT22;3956;50.558;9.678;2023-04-25T02:41:07;7.40;99.90
7822;DHT22;3956;50.558;9.678;2023-04-25T02:43:35;7.50;99.90
7822;DHT22;3956;50.558;9.678;2023-04-25T02:46:04;7.50;99.90
7822;DHT22;3956;50.558;9.678;2023-04-25T02:48:34;7.40;99.90
7822;DHT22;3956;50.558;9.678;2023-04-25T02:51:02;7.50;99.90
7822;DHT22;3956;50.558;9.678;2023-04-25T02:53:30;7.50;99.90
7822;DHT22;3956;50.558;9.678;2023-04-25T02:55:58;7.30;1.00
7822;DHT22;3956;50.558;9.678;2023-04-25T02:58:27;7.10;1.00
7822;DHT22;3956;50.558;9.678;2023-04-25T03:00:55;7.10;1.00
7822;DHT22;3956;50.558;9.678;2023-04-25T03:03:23;7.00;1.00
7822;DHT22;3956;50.558;9.678;2023-04-25T03:05:53;7.00;1.00
7822;DHT22;3956;50.558;9.678;2023-04-25T03:08:21;7.00;1.00
7822;DHT22;3956;50.558;9.678;2023-04-25T03:10:49;7.00;1.00
7822;DHT22;3956;50.558;9.678;2023-04-25T03:13:19;6.90;1.00
7822;DHT22;3956;50.558;9.678;2023-04-25T03:15:47;7.00;1.00
7822;DHT22;3956;50.558;9.678;2023-04-25T03:18:19;6.90;1.00
7822;DHT22;3956;50.558;9.678;2023-04-25T03:20:52;6.70;1.00
7822;DHT22;3956;50.558;9.678;2023-04-25T03:23:21;6.60;1.00
7822;DHT22;3956;50.558;9.678;2023-04-25T03:25:49;6.50;1.00
7822;DHT22;3956;50.558;9.678;2023-04-25T03:28:17;6.50;1.00
7822;DHT22;3956;50.558;9.678;2023-04-25T03:30:45;6.60;1.00
7822;DHT22;3956;50.558;9.678;2023-04-25T03:33:14;6.40;1.00
7822;DHT22;3956;50.558;9.678;2023-04-25T03:35:42;6.40;1.00
7822;DHT22;3956;50.558;9.678;2023-04-25T03:38:11;6.40;1.00
7822;DHT22;3956;50.558;9.678;2023-04-25T03:40:39;6.30;1.00
7822;DHT22;3956;50.558;9.678;2023-04-25T03:43:08;6.30;1.00
7822;DHT22;3956;50.558;9.678;2023-04-25T03:45:36;6.20;1.00
7822;DHT22;3956;50.558;9.678;2023-04-25T03:48:04;6.30;1.00
7822;DHT22;3956;50.558;9.678;2023-04-25T03:50:33;6.20;1.00
7822;DHT22;3956;50.558;9.678;2023-04-25T03:53:01;6.30;1.00
7822;DHT22;3956;50.558;9.678;2023-04-25T03:55:31;6.20;1.00
7822;DHT22;3956;50.558;9.678;2023-04-25T03:58:00;6.20;1.00
7822;DHT22;3956;50.558;9.678;2023-04-25T04:00:28;6.20;1.00
7822;DHT22;3956;50.558;9.678;2023-04-25T04:02:56;6.10;1.00
7822;DHT22;3956;50.558;9.678;2023-04-25T04:05:27;6.10;1.00
7822;DHT22;3956;50.558;9.678;2023-04-25T04:07:55;6.10;1.00
7822;DHT22;3956;50.558;9.678;2023-04-25T04:10:23;6.10;1.00
7822;DHT22;3956;50.558;9.678;2023-04-25T04:12:54;6.00;1.00
7822;DHT22;3956;50.558;9.678;2023-04-25T04:15:22;5.90;1.00
7822;DHT22;3956;50.558;9.678;2023-04-25T04:17:53;5.80;1.00
7822;DHT22;3956;50.558;9.678;2023-04-25T04:20:23;5.80;1.00
7822;DHT22;3956;50.558;9.678;2023-04-25T04:22:54;5.80;1.00
7822;DHT22;3956;50.558;9.678;2023-04-25T04:25:24;5.70;1.00
7822;DHT22;3956;50.558;9.678;2023-04-25T04:27:54;5.70;1.00
7822;DHT22;3956;50.558;9.678;2023-04-25T04:30:23;5.70;1.00
7822;DHT22;3956;50.558;9.678;2023-04-25T04:32:52;5.60;1.00
7822;DHT22;3956;50.558;9.678;2023-04-25T04:35:20;5.60;1.00
7822;DHT22;3956;50.558;9.678;2023-04-25T04:37:55;5.60;1.00
7822;DHT22;3956;50.558;9.678;2023-04-25T04:40:57;5.50;1.00
7822;DHT22;3956;50.558;9.678;2023-04-25T04:43:26;5.50;1.00
7822;DHT22;3956;50.558;9.678;2023-04-25T04:45:55;5.50;1.00
7822;DHT22;3956;50.558;9.678;2023-04-25T04:48:24;5.60;1.00
7822;DHT22;3956;50.558;9.678;2023-04-25T04:50:55;5.50;1.00
7822;DHT22;3956;50.558;9.678;2023-04-25T04:53:24;5.50;1.00
7822;DHT22;3956;50.558;9.678;2023-04-25T04:55:52;5.60;1.00
7822;DHT22;3956;50.558;9.678;2023-04-25T04:58:21;5.60;1.00
7822;DHT22;3956;50.558;9.678;2023-04-25T05:00:58;5.70;1.00
7822;DHT22;3956;50.558;9.678;2023-04-25T05:03:26;5.70;1.00
7822;DHT22;3956;50.558;9.678;2023-04-25T05:05:55;5.80;1.00
7822;DHT22;3956;50.558;9.678;2023-04-25T05:08:27;5.80;1.00
7822;DHT22;3956;50.558;9.678;2023-04-25T05:10:55;5.80;1.00
7822;DHT22;3956;50.558;9.678;2023-04-25T05:13:24;5.90;1.00
7822;DHT22;3956;50.558;9.678;2023-04-25T05:15:54;5.90;1.00
7822;DHT22;3956;50.558;9.678;2023-04-25T05:18:23;6.00;1.00
7822;DHT22;3956;50.558;9.678;2023-04-25T05:21:04;6.00;1.00
7822;DHT22;3956;50.558;9.678;2023-04-25T05:23:54;5.90;1.00
7822;DHT22;3956;50.558;9.678;2023-04-25T05:26:25;5.90;1.00
7822;DHT22;3956;50.558;9.678;2023-04-25T05:29:01;6.00;1.00
7822;DHT22;3956;50.558;9.678;2023-04-25T05:32:10;5.90;1.00
7822;DHT22;3956;50.558;9.678;2023-04-25T05:35:02;5.90;1.00
7822;DHT22;3956;50.558;9.678;2023-04-25T05:38:00;5.80;1.00
7822;DHT22;3956;50.558;9.678;2023-04-25T05:40:39;5.90;1.00
7822;DHT22;3956;50.558;9.678;2023-04-25T05:43:44;6.00;1.00
7822;DHT22;3956;50.558;9.678;2023-04-25T05:46:32;6.00;1.00
7822;DHT22;3956;50.558;9.678;2023-04-25T05:49:08;6.10;1.00
7822;DHT22;3956;50.558;9.678;2023-04-25T05:51:37;6.10;1.00
7822;DHT22;3956;50.558;9.678;2023-04-25T05:54:05;6.10;1.00
7822;DHT22;3956;50.558;9.678;2023-04-25T05:56:33;6.30;1.00
7822;DHT22;3956;50.558;9.678;2023-04-25T05:59:01;6.50;1.00
7822;DHT22;3956;50.558;9.678;2023-04-25T06:01:30;6.60;1.00
7822;DHT22;3956;50.558;9.678;2023-04-25T06:03:58;6.70;1.00
7822;DHT22;3956;50.558;9.678;2023-04-25T06:06:28;6.70;1.00
7822;DHT22;3956;50.558;9.678;2023-04-25T06:08:56;6.30;1.00
7822;DHT22;3956;50.558;9.678;2023-04-25T06:11:24;6.40;1.00
7822;DHT22;3956;50.558;9.678;2023-04-25T06:13:53;6.50;1.00
7822;DHT22;3956;50.558;9.678;2023-04-25T06:16:29;6.40;1.00
7822;DHT22;3956;50.558;9.678;2023-04-25T06:19:04;6.50;1.00
7822;DHT22;3956;50.558;9.678;2023-04-25T06:21:35;6.60;1.00
7822;DHT22;3956;50.558;9.678;2023-04-25T06:24:04;6.70;1.00
7822;DHT22;3956;50.558;9.678;2023-04-25T06:26:35;6.70;1.00
7822;DHT22;3956;50.558;9.678;2023-04-25T06:29:04;6.50;1.00
7822;DHT22;3956;50.558;9.678;2023-04-25T06:31:34;6.70;1.00
7822;DHT22;3956;50.558;9.678;2023-04-25T06:34:02;6.80;1.00
7822;DHT22;3956;50.558;9.678;2023-04-25T06:36:30;6.80;1.00
7822;DHT22;3956;50.558;9.678;2023-04-25T06:39:00;6.80;1.00
7822;DHT22;3956;50.558;9.678;2023-04-25T06:41:28;6.90;1.00
7822;DHT22;3956;50.558;9.678;2023-04-25T06:43:56;7.00;1.00
7822;DHT22;3956;50.558;9.678;2023-04-25T06:46:25;6.90;1.00
7822;DHT22;3956;50.558;9.678;2023-04-25T06:48:53;6.80;1.00
7822;DHT22;3956;50.558;9.678;2023-04-25T06:51:21;6.70;1.00
7822;DHT22;3956;50.558;9.678;2023-04-25T06:53:55;7.20;1.00
7822;DHT22;3956;50.558;9.678;2023-04-25T06:56:28;7.50;1.00
7822;DHT22;3956;50.558;9.678;2023-04-25T06:58:57;7.20;1.00
7822;DHT22;3956;50.558;9.678;2023-04-25T07:01:27;7.20;1.00
7822;DHT22;3956;50.558;9.678;2023-04-25T07:03:57;7.20;1.00
7822;DHT22;3956;50.558;9.678;2023-04-25T07:06:27;7.20;1.00
7822;DHT22;3956;50.558;9.678;2023-04-25T07:08:57;7.10;1.00
7822;DHT22;3956;50.558;9.678;2023-04-25T07:11:28;7.50;1.00
7822;DHT22;3956;50.558;9.678;2023-04-25T07:14:06;7.60;1.00
7822;DHT22;3956;50.558;9.678;2023-04-25T07:16:34;7.90;1.00
7822;DHT22;3956;50.558;9.678;2023-04-25T07:19:11;8.00;1.00
7822;DHT22;3956;50.558;9.678;2023-04-25T07:21:48;7.70;1.00
7822;DHT22;3956;50.558;9.678;2023-04-25T07:24:20;7.70;1.00
7822;DHT22;3956;50.558;9.678;2023-04-25T07:27:01;7.80;1.00
7822;DHT22;3956;50.558;9.678;2023-04-25T07:29:46;7.80;1.00
7822;DHT22;3956;50.558;9.678;2023-04-25T07:32:25;7.80;1.00
7822;DHT22;3956;50.558;9.678;2023-04-25T07:35:10;7.60;1.00
7822;DHT22;3956;50.558;9.678;2023-04-25T07:37:47;7.70;1.00
7822;DHT22;3956;50.558;9.678;2023-04-25T07:40:21;7.70;1.00
7822;DHT22;3956;50.558;9.678;2023-04-25T07:43:07;7.70;1.00
7822;DHT22;3956;50.558;9.678;2023-04-25T07:45:37;7.50;1.00
7822;DHT22;3956;50.558;9.678;2023-04-25T07:48:10;7.70;1.00
7822;DHT22;3956;50.558;9.678;2023-04-25T07:50:39;7.80;1.00
7822;DHT22;3956;50.558;9.678;2023-04-25T07:53:09;7.70;1.00
7822;DHT22;3956;50.558;9.678;2023-04-25T07:55:37;8.10;1.00
7822;DHT22;3956;50.558;9.678;2023-04-25T07:58:16;8.30;1.00
7822;DHT22;3956;50.558;9.678;2023-04-25T08:00:48;7.90;1.00
7822;DHT22;3956;50.558;9.678;2023-04-25T08:03:21;8.10;1.00
7822;DHT22;3956;50.558;9.678;2023-04-25T08:05:52;10.10;1.00
7822;DHT22;3956;50.558;9.678;2023-04-25T08:08:21;11.10;1.00
7822;DHT22;3956;50.558;9.678;2023-04-25T08:10:49;10.80;1.00
7822;DHT22;3956;50.558;9.678;2023-04-25T08:13:19;10.00;1.00
7822;DHT22;3956;50.558;9.678;2023-04-25T08:15:57;9.70;1.00
7822;DHT22;3956;50.558;9.678;2023-04-25T08:18:28;9.50;1.00
7822;DHT22;3956;50.558;9.678;2023-04-25T08:20:58;9.30;1.00
7822;DHT22;3956;50.558;9.678;2023-04-25T08:23:38;9.40;1.00
7822;DHT22;3956;50.558;9.678;2023-04-25T08:26:30;9.10;1.00
7822;DHT22;3956;50.558;9.678;2023-04-25T08:29:06;9.20;1.00
7822;DHT22;3956;50.558;9.678;2023-04-25T08:31:35;9.40;1.00
7822;DHT22;3956;50.558;9.678;2023-04-25T08:34:05;9.30;1.00
7822;DHT22;3956;50.558;9.678;2023-04-25T08:36:34;9.20;1.00
7822;DHT22;3956;50.558;9.678;2023-04-25T08:39:12;9.10;1.00
7822;DHT22;3956;50.558;9.678;2023-04-25T08:41:41;9.20;1.00
7822;DHT22;3956;50.558;9.678;2023-04-25T08:44:12;12.50;1.00
7822;DHT22;3956;50.558;9.678;2023-04-25T08:46:41;10.80;1.00
7822;DHT22;3956;50.558;9.678;2023-04-25T08:49:13;9.90;1.00
7822;DHT22;3956;50.558;9.678;2023-04-25T08:51:52;9.10;1.00
7822;DHT22;3956;50.558;9.678;2023-04-25T08:54:21;9.10;1.00
7822;DHT22;3956;50.558;9.678;2023-04-25T08:57:02;8.90;1.00
7822;DHT22;3956;50.558;9.678;2023-04-25T08:59:37;8.90;1.00
7822;DHT22;3956;50.558;9.678;2023-04-25T09:02:07;8.90;1.00
7822;DHT22;3956;50.558;9.678;2023-04-25T09:04:38;8.90;1.00
7822;DHT22;3956;50.558;9.678;2023-04-25T09:07:27;8.80;1.00
7822;DHT22;3956;50.558;9.678;2023-04-25T09:10:52;8.60;1.00
7822;DHT22;3956;50.558;9.678;2023-04-25T09:13:27;8.10;1.00
7822;DHT22;3956;50.558;9.678;2023-04-25T09:16:15;8.00;1.00
7822;DHT22;3956;50.558;9.678;2023-04-25T09:18:47;8.10;1.00
7822;DHT22;3956;50.558;9.678;2023-04-25T09:21:22;7.90;1.00
7822;DHT22;3956;50.558;9.678;2023-04-25T09:23:51;7.90;1.00
7822;DHT22;3956;50.558;9.678;2023-04-25T09:26:21;7.90;1.00
7822;DHT22;3956;50.558;9.678;2023-04-25T09:29:04;7.90;1.00
7822;DHT22;3956;50.558;9.678;2023-04-25T09:35:09;8.00;1.00
7822;DHT22;3956;50.558;9.678;2023-04-25T09:37:41;8.10;1.00
7822;DHT22;3956;50.558;9.678;2023-04-25T09:40:22;8.20;1.00
7822;DHT22;3956;50.558;9.678;2023-04-25T09:43:04;8.20;1.00
7822;DHT22;3956;50.558;9.678;2023-04-25T09:45:43;8.90;1.00
7822;DHT22;3956;50.558;9.678;2023-04-25T09:48:19;9.20;1.00
7822;DHT22;3956;50.558;9.678;2023-04-25T09:51:07;9.80;1.00
7822;DHT22;3956;50.558;9.678;2023-04-25T09:53:37;9.80;1.00
7822;DHT22;3956;50.558;9.678;2023-04-25T09:56:07;9.60;1.00
7822;DHT22;3956;50.558;9.678;2023-04-25T09:58:37;9.50;1.00
7822;DHT22;3956;50.558;9.678;2023-04-25T10:01:17;9.40;1.00
7822;DHT22;3956;50.558;9.678;2023-04-25T10:04:24;9.30;1.00
7822;DHT22;3956;50.558;9.678;2023-04-25T10:07:03;9.30;1.00
7822;DHT22;3956;50.558;9.678;2023-04-25T10:09:37;8.80;1.00
7822;DHT22;3956;50.558;9.678;2023-04-25T10:12:08;9.00;1.00
7822;DHT22;3956;50.558;9.678;2023-04-25T10:14:37;8.60;1.00
7822;DHT22;3956;50.558;9.678;2023-04-25T10:17:26;8.60;1.00
7822;DHT22;3956;50.558;9.678;2023-04-25T10:20:08;8.60;1.00
7822;DHT22;3956;50.558;9.678;2023-04-25T10:23:11;8.50;1.00
7822;DHT22;3956;50.558;9.678;2023-04-25T10:25:48;8.60;1.00
7822;DHT22;3956;50.558;9.678;2023-04-25T10:28:22;8.60;1.00
7822;DHT22;3956;50.558;9.678;2023-04-25T10:31:01;8.70;1.00
7822;DHT22;3956;50.558;9.678;2023-04-25T10:33:33;8.70;1.00
7822;DHT22;3956;50.558;9.678;2023-04-25T10:36:13;8.60;1.00
7822;DHT22;3956;50.558;9.678;2023-04-25T10:38:55;9.10;1.00
7822;DHT22;3956;50.558;9.678;2023-04-25T10:41:26;9.00;1.00
7822;DHT22;3956;50.558;9.678;2023-04-25T10:44:04;9.20;1.00
7822;DHT22;3956;50.558;9.678;2023-04-25T10:46:34;9.10;1.00
7822;DHT22;3956;50.558;9.678;2023-04-25T10:49:09;9.00;1.00
7822;DHT22;3956;50.558;9.678;2023-04-25T10:51:46;9.10;1.00
7822;DHT22;3956;50.558;9.678;2023-04-25T10:54:40;8.90;1.00
7822;DHT22;3956;50.558;9.678;2023-04-25T10:57:30;8.80;1.00
7822;DHT22;3956;50.558;9.678;2023-04-25T11:00:08;8.70;1.00
7822;DHT22;3956;50.558;9.678;2023-04-25T11:03:08;8.70;1.00
7822;DHT22;3956;50.558;9.678;2023-04-25T11:05:38;8.70;1.00
7822;DHT22;3956;50.558;9.678;2023-04-25T11:08:32;8.40;1.00
7822;DHT22;3956;50.558;9.678;2023-04-25T11:11:37;8.50;1.00
7822;DHT22;3956;50.558;9.678;2023-04-25T11:14:05;8.70;1.00
7822;DHT22;3956;50.558;9.678;2023-04-25T11:16:34;8.80;1.00
7822;DHT22;3956;50.558;9.678;2023-04-25T11:19:03;8.60;1.00
7822;DHT22;3956;50.558;9.678;2023-04-25T11:21:31;8.70;1.00
7822;DHT22;3956;50.558;9.678;2023-04-25T11:24:00;8.60;1.00
7822;DHT22;3956;50.558;9.678;2023-04-25T11:26:30;8.60;1.00
7822;DHT22;3956;50.558;9.678;2023-04-25T11:28:58;8.90;1.00
7822;DHT22;3956;50.558;9.678;2023-04-25T11:31:28;9.10;1.00
7822;DHT22;3956;50.558;9.678;2023-04-25T11:34:17;9.50;1.00
7822;DHT22;3956;50.558;9.678;2023-04-25T11:36:54;9.50;1.00
7822;DHT22;3956;50.558;9.678;2023-04-25T11:39:33;9.60;1.00
7822;DHT22;3956;50.558;9.678;2023-04-25T11:43:03;9.70;1.00
7822;DHT22;3956;50.558;9.678;2023-04-25T11:46:07;9.70;1.00
7822;DHT22;3956;50.558;9.678;2023-04-25T11:48:40;9.50;1.00
7822;DHT22;3956;50.558;9.678;2023-04-25T11:51:22;9.40;1.00
7822;DHT22;3956;50.558;9.678;2023-04-25T11:54:09;9.10;1.00
7822;DHT22;3956;50.558;9.678;2023-04-25T11:57:08;8.90;1.00
7822;DHT22;3956;50.558;9.678;2023-04-25T11:59:38;9.10;1.00
7822;DHT22;3956;50.558;9.678;2023-04-25T12:02:06;9.30;1.00
7822;DHT22;3956;50.558;9.678;2023-04-25T12:04:36;9.50;1.00
7822;DHT22;3956;50.558;9.678;2023-04-25T12:07:10;9.50;1.00
7822;DHT22;3956;50.558;9.678;2023-04-25T12:09:38;9.70;1.00
7822;DHT22;3956;50.558;9.678;2023-04-25T12:12:09;9.70;1.00
7822;DHT22;3956;50.558;9.678;2023-04-25T12:14:47;9.70;1.00
7822;DHT22;3956;50.558;9.678;2023-04-25T12:17:17;9.80;1.00
7822;DHT22;3956;50.558;9.678;2023-04-25T12:19:58;9.80;1.00
7822;DHT22;3956;50.558;9.678;2023-04-25T12:22:47;9.80;1.00
7822;DHT22;3956;50.558;9.678;2023-04-25T12:25:36;9.80;1.00
7822;DHT22;3956;50.558;9.678;2023-04-25T12:28:15;9.80;1.00
7822;DHT22;3956;50.558;9.678;2023-04-25T12:30:56;10.20;1.00
7822;DHT22;3956;50.558;9.678;2023-04-25T12:33:45;10.30;1.00
7822;DHT22;3956;50.558;9.678;2023-04-25T12:36:15;10.20;1.00
7822;DHT22;3956;50.558;9.678;2023-04-25T12:38:44;10.10;1.00
7822;DHT22;3956;50.558;9.678;2023-04-25T12:41:12;10.30;1.00
7822;DHT22;3956;50.558;9.678;2023-04-25T12:43:41;10.10;1.00
7822;DHT22;3956;50.558;9.678;2023-04-25T12:46:10;9.90;1.00
7822;DHT22;3956;50.558;9.678;2023-04-25T12:48:46;10.00;1.00
7822;DHT22;3956;50.558;9.678;2023-04-25T12:51:20;10.10;1.00
7822;DHT22;3956;50.558;9.678;2023-04-25T12:53:58;10.10;1.00
7822;DHT22;3956;50.558;9.678;2023-04-25T12:56:28;10.20;1.00
7822;DHT22;3956;50.558;9.678;2023-04-25T12:58:58;9.80;1.00
7822;DHT22;3956;50.558;9.678;2023-04-25T13:01:29;9.90;1.00
7822;DHT22;3956;50.558;9.678;2023-04-25T13:04:02;9.70;1.00
7822;DHT22;3956;50.558;9.678;2023-04-25T13:06:34;9.80;1.00
7822;DHT22;3956;50.558;9.678;2023-04-25T13:09:03;9.80;1.00
7822;DHT22;3956;50.558;9.678;2023-04-25T13:11:31;9.80;1.00
7822;DHT22;3956;50.558;9.678;2023-04-25T13:14:00;9.70;1.00
7822;DHT22;3956;50.558;9.678;2023-04-25T13:16:39;9.80;1.00
7822;DHT22;3956;50.558;9.678;2023-04-25T13:19:09;10.00;1.00
7822;DHT22;3956;50.558;9.678;2023-04-25T13:21:41;9.80;1.00
7822;DHT22;3956;50.558;9.678;2023-04-25T13:24:12;10.00;1.00
7822;DHT22;3956;50.558;9.678;2023-04-25T13:26:40;10.20;1.00
7822;DHT22;3956;50.558;9.678;2023-04-25T13:29:08;10.20;1.00
7822;DHT22;3956;50.558;9.678;2023-04-25T13:31:46;10.50;1.00
7822;DHT22;3956;50.558;9.678;2023-04-25T13:34:49;10.20;1.00
7822;DHT22;3956;50.558;9.678;2023-04-25T13:38:02;10.30;1.00
7822;DHT22;3956;50.558;9.678;2023-04-25T13:40:56;10.10;1.00
7822;DHT22;3956;50.558;9.678;2023-04-25T13:43:35;10.50;1.00
7822;DHT22;3956;50.558;9.678;2023-04-25T13:46:10;10.30;1.00
7822;DHT22;3956;50.558;9.678;2023-04-25T13:49:02;10.40;1.00
7822;DHT22;3956;50.558;9.678;2023-04-25T13:51:41;10.40;1.00
7822;DHT22;3956;50.558;9.678;2023-04-25T13:54:14;10.30;1.00
7822;DHT22;3956;50.558;9.678;2023-04-25T13:56:42;10.20;1.00
7822;DHT22;3956;50.558;9.678;2023-04-25T13:59:11;9.70;1.00
7822;DHT22;3956;50.558;9.678;2023-04-25T14:01:42;9.90;1.00
7822;DHT22;3956;50.558;9.678;2023-04-25T14:04:11;10.10;1.00
7822;DHT22;3956;50.558;9.678;2023-04-25T14:06:40;10.10;1.00
7822;DHT22;3956;50.558;9.678;2023-04-25T14:09:10;9.90;1.00
7822;DHT22;3956;50.558;9.678;2023-04-25T14:11:45;10.10;1.00
7822;DHT22;3956;50.558;9.678;2023-04-25T14:14:17;10.00;1.00
7822;DHT22;3956;50.558;9.678;2023-04-25T14:16:58;9.90;1.00
7822;DHT22;3956;50.558;9.678;2023-04-25T14:19:57;9.90;1.00
7822;DHT22;3956;50.558;9.678;2023-04-25T14:22:46;10.20;1.00
7822;DHT22;3956;50.558;9.678;2023-04-25T14:25:21;9.90;1.00
7822;DHT22;3956;50.558;9.678;2023-04-25T14:28:12;9.70;1.00
7822;DHT22;3956;50.558;9.678;2023-04-25T14:31:31;9.60;1.00
7822;DHT22;3956;50.558;9.678;2023-04-25T14:34:33;9.40;1.00
7822;DHT22;3956;50.558;9.678;2023-04-25T14:37:52;9.40;1.00
7822;DHT22;3956;50.558;9.678;2023-04-25T14:40:23;9.50;1.00
7822;DHT22;3956;50.558;9.678;2023-04-25T14:43:06;9.50;1.00
7822;DHT22;3956;50.558;9.678;2023-04-25T14:45:48;9.20;1.00
7822;DHT22;3956;50.558;9.678;2023-04-25T14:48:24;9.20;1.00
7822;DHT22;3956;50.558;9.678;2023-04-25T14:50:55;9.10;1.00
7822;DHT22;3956;50.558;9.678;2023-04-25T14:53:35;9.20;1.00
7822;DHT22;3956;50.558;9.678;2023-04-25T14:56:11;9.10;1.00
7822;DHT22;3956;50.558;9.678;2023-04-25T14:59:16;9.20;1.00
7822;DHT22;3956;50.558;9.678;2023-04-25T15:01:56;9.10;1.00
7822;DHT22;3956;50.558;9.678;2023-04-25T15:04:25;9.20;1.00
7822;DHT22;3956;50.558;9.678;2023-04-25T15:06:55;9.10;1.00
7822;DHT22;3956;50.558;9.678;2023-04-25T15:09:26;9.10;1.00
7822;DHT22;3956;50.558;9.678;2023-04-25T15:11:57;9.10;1.00
7822;DHT22;3956;50.558;9.678;2023-04-25T15:14:26;9.30;1.00
7822;DHT22;3956;50.558;9.678;2023-04-25T15:16:56;9.40;1.00
7822;DHT22;3956;50.558;9.678;2023-04-25T15:19:27;9.60;1.00
7822;DHT22;3956;50.558;9.678;2023-04-25T15:21:57;9.60;1.00
7822;DHT22;3956;50.558;9.678;2023-04-25T15:24:30;9.80;1.00
7822;DHT22;3956;50.558;9.678;2023-04-25T15:27:03;9.80;1.00
7822;DHT22;3956;50.558;9.678;2023-04-25T15:29:45;9.90;1.00
7822;DHT22;3956;50.558;9.678;2023-04-25T15:32:15;9.80;1.00
7822;DHT22;3956;50.558;9.678;2023-04-25T15:34:52;9.50;1.00
7822;DHT22;3956;50.558;9.678;2023-04-25T15:37:21;9.60;1.00
7822;DHT22;3956;50.558;9.678;2023-04-25T15:40:01;9.50;1.00
7822;DHT22;3956;50.558;9.678;2023-04-25T15:42:30;9.70;1.00
7822;DHT22;3956;50.558;9.678;2023-04-25T15:45:05;9.70;1.00
7822;DHT22;3956;50.558;9.678;2023-04-25T15:48:03;9.40;1.00
7822;DHT22;3956;50.558;9.678;2023-04-25T15:50:49;9.50;1.00
7822;DHT22;3956;50.558;9.678;2023-04-25T15:53:25;9.70;1.00
7822;DHT22;3956;50.558;9.678;2023-04-25T15:56:23;9.80;1.00
7822;DHT22;3956;50.558;9.678;2023-04-25T15:58:59;9.70;1.00
7822;DHT22;3956;50.558;9.678;2023-04-25T16:02:11;9.70;1.00
7822;DHT22;3956;50.558;9.678;2023-04-25T16:04:52;9.80;1.00
7822;DHT22;3956;50.558;9.678;2023-04-25T16:07:21;9.60;1.00
7822;DHT22;3956;50.558;9.678;2023-04-25T16:09:52;9.60;1.00
7822;DHT22;3956;50.558;9.678;2023-04-25T16:12:31;9.50;1.00
7822;DHT22;3956;50.558;9.678;2023-04-25T16:14:59;9.50;1.00
7822;DHT22;3956;50.558;9.678;2023-04-25T16:17:28;9.50;1.00
7822;DHT22;3956;50.558;9.678;2023-04-25T16:19:57;9.60;1.00
7822;DHT22;3956;50.558;9.678;2023-04-25T16:22:28;9.50;1.00
7822;DHT22;3956;50.558;9.678;2023-04-25T16:24:58;9.50;1.00
7822;DHT22;3956;50.558;9.678;2023-04-25T16:27:56;9.40;1.00
7822;DHT22;3956;50.558;9.678;2023-04-25T16:30:40;9.30;1.00
7822;DHT22;3956;50.558;9.678;2023-04-25T16:33:24;9.20;1.00
7822;DHT22;3956;50.558;9.678;2023-04-25T16:36:05;9.10;1.00
7822;DHT22;3956;50.558;9.678;2023-04-25T16:38:34;9.00;1.00
7822;DHT22;3956;50.558;9.678;2023-04-25T16:41:07;9.10;1.00
7822;DHT22;3956;50.558;9.678;2023-04-25T16:43:38;9.10;1.00
7822;DHT22;3956;50.558;9.678;2023-04-25T16:46:09;9.20;1.00
7822;DHT22;3956;50.558;9.678;2023-04-25T16:48:39;9.30;1.00
7822;DHT22;3956;50.558;9.678;2023-04-25T16:51:08;9.20;1.00
7822;DHT22;3956;50.558;9.678;2023-04-25T16:53:47;9.40;1.00
7822;DHT22;3956;50.558;9.678;2023-04-25T16:56:57;9.30;1.00
7822;DHT22;3956;50.558;9.678;2023-04-25T16:59:40;9.30;1.00
7822;DHT22;3956;50.558;9.678;2023-04-25T17:02:15;9.20;1.00
7822;DHT22;3956;50.558;9.678;2023-04-25T17:04:49;9.20;1.00
7822;DHT22;3956;50.558;9.678;2023-04-25T17:07:31;9.20;1.00
7822;DHT22;3956;50.558;9.678;2023-04-25T17:10:39;9.30;1.00
7822;DHT22;3956;50.558;9.678;2023-04-25T17:13:18;9.40;1.00
7822;DHT22;3956;50.558;9.678;2023-04-25T17:15:47;9.30;1.00
7822;DHT22;3956;50.558;9.678;2023-04-25T17:18:17;9.10;1.00
7822;DHT22;3956;50.558;9.678;2023-04-25T17:20:48;8.90;1.00
7822;DHT22;3956;50.558;9.678;2023-04-25T17:23:18;8.80;1.00
7822;DHT22;3956;50.558;9.678;2023-04-25T17:25:48;8.80;1.00